sensor_id;sensor_type;location;lat;lon;timestamp;P1;durP1;ratioP1;P2;durP2;ratioP2
11514;SDS011;5814;41.936;25.556;2023-01-29T00:01:13;20.87;;;19.67;;
11514;SDS011;5814;41.936;25.556;2023-01-29T00:03:40;21.40;;;20.20;;
11514;SDS011;5814;41.936;25.556;2023-01-29T00:06:07;20.47;;;19.27;;
11514;SDS011;5814;41.936;25.556;2023-01-29T00:08:36;20.73;;;19.63;;
11514;SDS011;5814;41.936;25.556;2023-01-29T00:11:04;20.37;;;19.10;;
11514;SDS011;5814;41.936;25.556;2023-01-29T00:13:31;20.20;;;18.90;;
11514;SDS011;5814;41.936;25.556;2023-01-29T00:15:58;20.87;;;19.30;;
11514;SDS011;5814;41.936;25.556;2023-01-29T00:18:25;18.97;;;17.97;;
11514;SDS011;5814;41.936;25.556;2023-01-29T00:20:52;20.73;;;19.43;;
11514;SDS011;5814;41.936;25.556;2023-01-29T00:23:19;21.20;;;19.90;;
11514;SDS011;5814;41.936;25.556;2023-01-29T00:25:47;20.67;;;19.60;;
11514;SDS011;5814;41.936;25.556;2023-01-29T00:28:14;20.37;;;19.07;;
11514;SDS011;5814;41.936;25.556;2023-01-29T00:30:41;21.30;;;20.10;;
11514;SDS011;5814;41.936;25.556;2023-01-29T00:33:08;21.83;;;20.47;;
11514;SDS011;5814;41.936;25.556;2023-01-29T00:35:38;21.43;;;20.17;;
11514;SDS011;5814;41.936;25.556;2023-01-29T00:38:02;20.90;;;19.80;;
11514;SDS011;5814;41.936;25.556;2023-01-29T00:40:30;21.60;;;20.33;;
11514;SDS011;5814;41.936;25.556;2023-01-29T00:42:57;22.17;;;20.87;;
11514;SDS011;5814;41.936;25.556;2023-01-29T00:45:29;20.90;;;19.70;;
11514;SDS011;5814;41.936;25.556;2023-01-29T00:47:57;21.03;;;19.90;;
11514;SDS011;5814;41.936;25.556;2023-01-29T00:50:24;23.53;;;21.93;;
11514;SDS011;5814;41.936;25.556;2023-01-29T00:52:51;20.53;;;19.13;;
11514;SDS011;5814;41.936;25.556;2023-01-29T00:55:18;20.23;;;18.77;;
11514;SDS011;5814;41.936;25.556;2023-01-29T00:57:45;20.70;;;19.43;;
11514;SDS011;5814;41.936;25.556;2023-01-29T01:00:14;21.60;;;20.07;;
11514;SDS011;5814;41.936;25.556;2023-01-29T01:02:41;23.07;;;21.53;;
11514;SDS011;5814;41.936;25.556;2023-01-29T01:05:14;21.13;;;19.80;;
11514;SDS011;5814;41.936;25.556;2023-01-29T01:07:46;18.80;;;17.70;;
11514;SDS011;5814;41.936;25.556;2023-01-29T01:10:15;19.27;;;18.13;;
11514;SDS011;5814;41.936;25.556;2023-01-29T01:12:49;19.00;;;17.90;;
11514;SDS011;5814;41.936;25.556;2023-01-29T01:15:18;19.80;;;18.33;;
11514;SDS011;5814;41.936;25.556;2023-01-29T01:17:45;19.07;;;18.00;;
11514;SDS011;5814;41.936;25.556;2023-01-29T01:20:13;18.00;;;17.00;;
11514;SDS011;5814;41.936;25.556;2023-01-29T01:22:40;18.93;;;17.70;;
11514;SDS011;5814;41.936;25.556;2023-01-29T01:25:07;20.03;;;18.73;;
11514;SDS011;5814;41.936;25.556;2023-01-29T01:27:35;17.97;;;16.97;;
11514;SDS011;5814;41.936;25.556;2023-01-29T01:30:02;18.60;;;17.60;;
11514;SDS011;5814;41.936;25.556;2023-01-29T01:32:29;20.93;;;19.53;;
11514;SDS011;5814;41.936;25.556;2023-01-29T01:34:57;20.47;;;19.37;;
11514;SDS011;5814;41.936;25.556;2023-01-29T01:37:24;22.27;;;20.77;;
11514;SDS011;5814;41.936;25.556;2023-01-29T01:39:51;21.33;;;20.03;;
11514;SDS011;5814;41.936;25.556;2023-01-29T01:42:18;22.90;;;21.40;;
11514;SDS011;5814;41.936;25.556;2023-01-29T01:44:57;21.63;;;20.20;;
11514;SDS011;5814;41.936;25.556;2023-01-29T01:47:27;20.07;;;18.67;;
11514;SDS011;5814;41.936;25.556;2023-01-29T01:49:55;23.47;;;21.90;;
11514;SDS011;5814;41.936;25.556;2023-01-29T01:52:22;22.67;;;21.07;;
11514;SDS011;5814;41.936;25.556;2023-01-29T01:54:50;23.10;;;20.40;;
11514;SDS011;5814;41.936;25.556;2023-01-29T01:57:17;21.73;;;20.10;;
11514;SDS011;5814;41.936;25.556;2023-01-29T01:59:46;19.27;;;18.03;;
11514;SDS011;5814;41.936;25.556;2023-01-29T02:02:12;21.10;;;19.63;;
11514;SDS011;5814;41.936;25.556;2023-01-29T02:04:45;21.77;;;20.07;;
11514;SDS011;5814;41.936;25.556;2023-01-29T02:07:17;20.83;;;19.23;;
11514;SDS011;5814;41.936;25.556;2023-01-29T02:09:52;20.30;;;18.97;;
11514;SDS011;5814;41.936;25.556;2023-01-29T02:12:19;19.97;;;18.67;;
11514;SDS011;5814;41.936;25.556;2023-01-29T02:14:45;21.57;;;19.97;;
11514;SDS011;5814;41.936;25.556;2023-01-29T02:17:13;20.77;;;19.57;;
11514;SDS011;5814;41.936;25.556;2023-01-29T02:19:45;22.30;;;20.80;;
11514;SDS011;5814;41.936;25.556;2023-01-29T02:22:16;22.50;;;20.67;;
11514;SDS011;5814;41.936;25.556;2023-01-29T02:27:32;21.27;;;19.97;;
11514;SDS011;5814;41.936;25.556;2023-01-29T02:30:32;21.03;;;19.63;;
11514;SDS011;5814;41.936;25.556;2023-01-29T02:32:49;21.80;;;20.20;;
11514;SDS011;5814;41.936;25.556;2023-01-29T02:35:17;21.80;;;20.57;;
11514;SDS011;5814;41.936;25.556;2023-01-29T02:41:04;22.67;;;21.07;;
11514;SDS011;5814;41.936;25.556;2023-01-29T02:45:59;22.40;;;21.00;;
11514;SDS011;5814;41.936;25.556;2023-01-29T02:48:28;22.67;;;21.23;;
11514;SDS011;5814;41.936;25.556;2023-01-29T02:50:57;21.70;;;20.33;;
11514;SDS011;5814;41.936;25.556;2023-01-29T02:53:26;22.47;;;21.07;;
11514;SDS011;5814;41.936;25.556;2023-01-29T02:58:45;22.90;;;21.60;;
11514;SDS011;5814;41.936;25.556;2023-01-29T03:01:20;22.80;;;21.30;;
11514;SDS011;5814;41.936;25.556;2023-01-29T03:03:48;23.13;;;21.63;;
11514;SDS011;5814;41.936;25.556;2023-01-29T03:06:19;24.83;;;22.93;;
11514;SDS011;5814;41.936;25.556;2023-01-29T03:09:00;23.97;;;22.23;;
11514;SDS011;5814;41.936;25.556;2023-01-29T03:11:30;26.47;;;24.67;;
11514;SDS011;5814;41.936;25.556;2023-01-29T03:13:56;27.13;;;25.03;;
11514;SDS011;5814;41.936;25.556;2023-01-29T03:16:29;26.87;;;24.67;;
11514;SDS011;5814;41.936;25.556;2023-01-29T03:19:11;25.33;;;23.33;;
11514;SDS011;5814;41.936;25.556;2023-01-29T03:21:30;26.47;;;24.53;;
11514;SDS011;5814;41.936;25.556;2023-01-29T03:24:02;25.37;;;23.57;;
11514;SDS011;5814;41.936;25.556;2023-01-29T03:26:35;26.67;;;24.60;;
11514;SDS011;5814;41.936;25.556;2023-01-29T03:29:07;25.90;;;24.10;;
11514;SDS011;5814;41.936;25.556;2023-01-29T03:31:40;28.37;;;26.37;;
11514;SDS011;5814;41.936;25.556;2023-01-29T03:34:15;27.13;;;25.13;;
11514;SDS011;5814;41.936;25.556;2023-01-29T03:36:42;29.97;;;27.80;;
11514;SDS011;5814;41.936;25.556;2023-01-29T03:39:08;28.77;;;26.67;;
11514;SDS011;5814;41.936;25.556;2023-01-29T03:41:36;27.80;;;25.60;;
11514;SDS011;5814;41.936;25.556;2023-01-29T03:44:09;26.97;;;25.00;;
11514;SDS011;5814;41.936;25.556;2023-01-29T03:46:40;26.93;;;24.93;;
11514;SDS011;5814;41.936;25.556;2023-01-29T03:49:08;28.57;;;26.27;;
11514;SDS011;5814;41.936;25.556;2023-01-29T03:54:28;29.87;;;27.50;;
11514;SDS011;5814;41.936;25.556;2023-01-29T03:57:09;28.80;;;26.73;;
11514;SDS011;5814;41.936;25.556;2023-01-29T03:59:34;28.90;;;26.70;;
11514;SDS011;5814;41.936;25.556;2023-01-29T04:02:03;29.33;;;27.10;;
11514;SDS011;5814;41.936;25.556;2023-01-29T04:04:30;29.73;;;27.53;;
11514;SDS011;5814;41.936;25.556;2023-01-29T04:06:56;30.87;;;28.50;;
11514;SDS011;5814;41.936;25.556;2023-01-29T04:09:27;30.30;;;27.90;;
11514;SDS011;5814;41.936;25.556;2023-01-29T04:11:56;29.83;;;27.53;;
11514;SDS011;5814;41.936;25.556;2023-01-29T04:14:21;30.00;;;27.70;;
11514;SDS011;5814;41.936;25.556;2023-01-29T04:16:50;29.67;;;27.30;;
11514;SDS011;5814;41.936;25.556;2023-01-29T04:19:16;29.60;;;27.33;;
11514;SDS011;5814;41.936;25.556;2023-01-29T04:21:43;30.57;;;28.07;;
11514;SDS011;5814;41.936;25.556;2023-01-29T04:24:11;30.13;;;27.73;;
11514;SDS011;5814;41.936;25.556;2023-01-29T04:26:48;30.93;;;28.60;;
11514;SDS011;5814;41.936;25.556;2023-01-29T04:31:56;32.50;;;29.80;;
11514;SDS011;5814;41.936;25.556;2023-01-29T04:34:46;31.70;;;29.13;;
11514;SDS011;5814;41.936;25.556;2023-01-29T04:37:27;32.40;;;29.77;;
11514;SDS011;5814;41.936;25.556;2023-01-29T04:39:57;33.83;;;30.83;;
11514;SDS011;5814;41.936;25.556;2023-01-29T04:42:29;32.40;;;29.80;;
11514;SDS011;5814;41.936;25.556;2023-01-29T04:45:07;31.10;;;28.63;;
11514;SDS011;5814;41.936;25.556;2023-01-29T04:47:40;32.03;;;29.43;;
11514;SDS011;5814;41.936;25.556;2023-01-29T04:50:21;30.73;;;28.33;;
11514;SDS011;5814;41.936;25.556;2023-01-29T04:52:52;30.90;;;28.50;;
11514;SDS011;5814;41.936;25.556;2023-01-29T04:55:31;30.00;;;27.60;;
11514;SDS011;5814;41.936;25.556;2023-01-29T04:58:02;30.70;;;28.30;;
11514;SDS011;5814;41.936;25.556;2023-01-29T05:00:32;30.60;;;28.10;;
11514;SDS011;5814;41.936;25.556;2023-01-29T05:03:00;32.17;;;29.50;;
11514;SDS011;5814;41.936;25.556;2023-01-29T05:05:27;29.90;;;27.40;;
11514;SDS011;5814;41.936;25.556;2023-01-29T05:07:54;31.07;;;28.60;;
11514;SDS011;5814;41.936;25.556;2023-01-29T05:10:22;31.33;;;28.73;;
11514;SDS011;5814;41.936;25.556;2023-01-29T05:12:52;35.47;;;32.60;;
11514;SDS011;5814;41.936;25.556;2023-01-29T05:15:19;34.57;;;31.83;;
11514;SDS011;5814;41.936;25.556;2023-01-29T05:17:46;35.47;;;32.60;;
11514;SDS011;5814;41.936;25.556;2023-01-29T05:20:13;31.97;;;29.47;;
11514;SDS011;5814;41.936;25.556;2023-01-29T05:22:40;32.37;;;29.80;;
11514;SDS011;5814;41.936;25.556;2023-01-29T05:25:18;34.17;;;31.37;;
11514;SDS011;5814;41.936;25.556;2023-01-29T05:27:49;33.27;;;30.67;;
11514;SDS011;5814;41.936;25.556;2023-01-29T05:30:22;34.47;;;31.60;;
11514;SDS011;5814;41.936;25.556;2023-01-29T05:32:49;32.00;;;29.37;;
11514;SDS011;5814;41.936;25.556;2023-01-29T05:35:16;34.07;;;31.07;;
11514;SDS011;5814;41.936;25.556;2023-01-29T05:37:43;34.27;;;31.43;;
11514;SDS011;5814;41.936;25.556;2023-01-29T05:40:11;33.73;;;30.73;;
11514;SDS011;5814;41.936;25.556;2023-01-29T05:42:38;34.27;;;31.27;;
11514;SDS011;5814;41.936;25.556;2023-01-29T05:45:05;34.60;;;31.63;;
11514;SDS011;5814;41.936;25.556;2023-01-29T05:47:33;33.27;;;30.37;;
11514;SDS011;5814;41.936;25.556;2023-01-29T05:50:01;32.40;;;29.10;;
11514;SDS011;5814;41.936;25.556;2023-01-29T05:52:28;32.97;;;30.07;;
11514;SDS011;5814;41.936;25.556;2023-01-29T05:54:55;32.97;;;30.13;;
11514;SDS011;5814;41.936;25.556;2023-01-29T05:57:22;33.47;;;30.50;;
11514;SDS011;5814;41.936;25.556;2023-01-29T05:59:49;33.07;;;30.17;;
11514;SDS011;5814;41.936;25.556;2023-01-29T06:02:17;34.37;;;31.17;;
11514;SDS011;5814;41.936;25.556;2023-01-29T06:04:44;33.53;;;30.33;;
11514;SDS011;5814;41.936;25.556;2023-01-29T06:07:11;33.73;;;30.60;;
11514;SDS011;5814;41.936;25.556;2023-01-29T06:09:38;34.30;;;31.20;;
11514;SDS011;5814;41.936;25.556;2023-01-29T06:12:05;34.70;;;31.53;;
11514;SDS011;5814;41.936;25.556;2023-01-29T06:14:32;35.07;;;31.57;;
11514;SDS011;5814;41.936;25.556;2023-01-29T06:17:00;34.73;;;31.57;;
11514;SDS011;5814;41.936;25.556;2023-01-29T06:19:27;35.57;;;32.10;;
11514;SDS011;5814;41.936;25.556;2023-01-29T06:21:54;33.50;;;30.50;;
11514;SDS011;5814;41.936;25.556;2023-01-29T06:24:21;36.40;;;33.17;;
11514;SDS011;5814;41.936;25.556;2023-01-29T06:26:48;33.60;;;30.60;;
11514;SDS011;5814;41.936;25.556;2023-01-29T06:29:16;33.37;;;30.57;;
11514;SDS011;5814;41.936;25.556;2023-01-29T06:31:43;33.43;;;30.53;;
11514;SDS011;5814;41.936;25.556;2023-01-29T06:34:10;34.03;;;31.03;;
11514;SDS011;5814;41.936;25.556;2023-01-29T06:36:37;33.93;;;30.70;;
11514;SDS011;5814;41.936;25.556;2023-01-29T06:39:04;32.33;;;29.47;;
11514;SDS011;5814;41.936;25.556;2023-01-29T06:41:32;34.53;;;31.33;;
11514;SDS011;5814;41.936;25.556;2023-01-29T06:43:59;36.03;;;32.73;;
11514;SDS011;5814;41.936;25.556;2023-01-29T06:46:26;33.57;;;30.50;;
11514;SDS011;5814;41.936;25.556;2023-01-29T06:48:53;35.83;;;32.63;;
11514;SDS011;5814;41.936;25.556;2023-01-29T06:51:20;33.23;;;30.13;;
11514;SDS011;5814;41.936;25.556;2023-01-29T06:53:47;34.33;;;31.27;;
11514;SDS011;5814;41.936;25.556;2023-01-29T06:56:15;34.57;;;31.40;;
11514;SDS011;5814;41.936;25.556;2023-01-29T06:58:42;35.73;;;32.40;;
11514;SDS011;5814;41.936;25.556;2023-01-29T07:01:09;32.47;;;29.63;;
11514;SDS011;5814;41.936;25.556;2023-01-29T07:03:36;31.03;;;28.23;;
11514;SDS011;5814;41.936;25.556;2023-01-29T07:06:03;33.20;;;30.30;;
11514;SDS011;5814;41.936;25.556;2023-01-29T07:08:31;36.53;;;33.20;;
11514;SDS011;5814;41.936;25.556;2023-01-29T07:10:58;32.97;;;29.97;;
11514;SDS011;5814;41.936;25.556;2023-01-29T07:13:25;35.33;;;32.17;;
11514;SDS011;5814;41.936;25.556;2023-01-29T07:15:52;33.53;;;30.63;;
11514;SDS011;5814;41.936;25.556;2023-01-29T07:18:19;31.93;;;29.13;;
11514;SDS011;5814;41.936;25.556;2023-01-29T07:20:47;34.10;;;30.93;;
11514;SDS011;5814;41.936;25.556;2023-01-29T07:23:14;34.33;;;31.33;;
11514;SDS011;5814;41.936;25.556;2023-01-29T07:25:41;36.07;;;32.87;;
11514;SDS011;5814;41.936;25.556;2023-01-29T07:28:08;37.70;;;34.07;;
11514;SDS011;5814;41.936;25.556;2023-01-29T07:37:00;33.57;;;30.60;;
11514;SDS011;5814;41.936;25.556;2023-01-29T07:39:28;37.27;;;33.90;;
11514;SDS011;5814;41.936;25.556;2023-01-29T07:41:55;36.90;;;33.47;;
11514;SDS011;5814;41.936;25.556;2023-01-29T07:44:22;34.27;;;31.07;;
11514;SDS011;5814;41.936;25.556;2023-01-29T07:46:49;35.63;;;32.53;;
11514;SDS011;5814;41.936;25.556;2023-01-29T07:49:16;35.37;;;32.23;;
11514;SDS011;5814;41.936;25.556;2023-01-29T07:51:43;33.43;;;30.43;;
11514;SDS011;5814;41.936;25.556;2023-01-29T07:54:11;32.67;;;29.63;;
11514;SDS011;5814;41.936;25.556;2023-01-29T07:56:38;34.13;;;31.23;;
11514;SDS011;5814;41.936;25.556;2023-01-29T07:59:05;36.33;;;33.00;;
11514;SDS011;5814;41.936;25.556;2023-01-29T08:01:32;39.93;;;36.00;;
11514;SDS011;5814;41.936;25.556;2023-01-29T08:03:59;38.30;;;34.70;;
11514;SDS011;5814;41.936;25.556;2023-01-29T08:06:27;36.23;;;32.77;;
11514;SDS011;5814;41.936;25.556;2023-01-29T08:08:54;39.50;;;35.60;;
11514;SDS011;5814;41.936;25.556;2023-01-29T08:11:21;35.37;;;32.10;;
11514;SDS011;5814;41.936;25.556;2023-01-29T08:13:48;34.17;;;31.03;;
11514;SDS011;5814;41.936;25.556;2023-01-29T08:16:15;30.17;;;27.57;;
11514;SDS011;5814;41.936;25.556;2023-01-29T08:18:42;33.03;;;29.93;;
11514;SDS011;5814;41.936;25.556;2023-01-29T08:21:10;32.33;;;29.43;;
11514;SDS011;5814;41.936;25.556;2023-01-29T08:23:37;33.23;;;30.20;;
11514;SDS011;5814;41.936;25.556;2023-01-29T08:26:04;32.23;;;29.23;;
11514;SDS011;5814;41.936;25.556;2023-01-29T08:28:31;30.03;;;27.50;;
11514;SDS011;5814;41.936;25.556;2023-01-29T08:30:58;31.83;;;28.93;;
11514;SDS011;5814;41.936;25.556;2023-01-29T08:33:26;28.57;;;26.17;;
11514;SDS011;5814;41.936;25.556;2023-01-29T08:35:53;29.80;;;27.30;;
11514;SDS011;5814;41.936;25.556;2023-01-29T08:38:20;37.40;;;33.83;;
11514;SDS011;5814;41.936;25.556;2023-01-29T08:40:47;33.97;;;30.87;;
11514;SDS011;5814;41.936;25.556;2023-01-29T08:43:14;39.17;;;35.10;;
11514;SDS011;5814;41.936;25.556;2023-01-29T08:45:42;34.93;;;31.57;;
11514;SDS011;5814;41.936;25.556;2023-01-29T08:48:09;32.00;;;28.80;;
11514;SDS011;5814;41.936;25.556;2023-01-29T08:50:36;32.13;;;29.20;;
11514;SDS011;5814;41.936;25.556;2023-01-29T08:53:04;30.47;;;27.77;;
11514;SDS011;5814;41.936;25.556;2023-01-29T08:55:30;32.40;;;28.90;;
11514;SDS011;5814;41.936;25.556;2023-01-29T08:57:58;35.80;;;31.90;;
11514;SDS011;5814;41.936;25.556;2023-01-29T09:00:25;34.07;;;30.50;;
11514;SDS011;5814;41.936;25.556;2023-01-29T09:02:52;33.37;;;30.27;;
11514;SDS011;5814;41.936;25.556;2023-01-29T09:05:19;34.93;;;31.73;;
11514;SDS011;5814;41.936;25.556;2023-01-29T09:07:46;30.83;;;28.13;;
11514;SDS011;5814;41.936;25.556;2023-01-29T09:10:14;27.70;;;25.47;;
11514;SDS011;5814;41.936;25.556;2023-01-29T09:12:41;29.17;;;26.67;;
11514;SDS011;5814;41.936;25.556;2023-01-29T09:15:08;30.57;;;28.07;;
11514;SDS011;5814;41.936;25.556;2023-01-29T09:17:36;29.20;;;26.87;;
11514;SDS011;5814;41.936;25.556;2023-01-29T09:20:03;28.40;;;26.20;;
11514;SDS011;5814;41.936;25.556;2023-01-29T09:22:32;28.77;;;26.47;;
11514;SDS011;5814;41.936;25.556;2023-01-29T09:24:59;26.97;;;24.93;;
11514;SDS011;5814;41.936;25.556;2023-01-29T09:27:26;28.67;;;26.37;;
11514;SDS011;5814;41.936;25.556;2023-01-29T09:29:53;28.13;;;25.80;;
11514;SDS011;5814;41.936;25.556;2023-01-29T09:32:20;29.00;;;26.60;;
11514;SDS011;5814;41.936;25.556;2023-01-29T09:34:48;29.70;;;27.40;;
11514;SDS011;5814;41.936;25.556;2023-01-29T09:37:15;29.10;;;26.83;;
11514;SDS011;5814;41.936;25.556;2023-01-29T09:39:43;29.97;;;27.57;;
11514;SDS011;5814;41.936;25.556;2023-01-29T09:42:19;27.00;;;24.90;;
11514;SDS011;5814;41.936;25.556;2023-01-29T09:44:50;27.47;;;25.40;;
11514;SDS011;5814;41.936;25.556;2023-01-29T09:47:18;26.50;;;24.50;;
11514;SDS011;5814;41.936;25.556;2023-01-29T09:49:47;27.13;;;24.87;;
11514;SDS011;5814;41.936;25.556;2023-01-29T09:52:23;28.83;;;26.53;;
11514;SDS011;5814;41.936;25.556;2023-01-29T09:55:00;26.57;;;24.57;;
11514;SDS011;5814;41.936;25.556;2023-01-29T09:57:33;28.50;;;26.27;;
11514;SDS011;5814;41.936;25.556;2023-01-29T10:00:00;28.07;;;25.97;;
11514;SDS011;5814;41.936;25.556;2023-01-29T10:02:38;25.47;;;23.47;;
11514;SDS011;5814;41.936;25.556;2023-01-29T10:08:07;26.67;;;24.67;;
11514;SDS011;5814;41.936;25.556;2023-01-29T10:10:38;26.33;;;24.30;;
11514;SDS011;5814;41.936;25.556;2023-01-29T10:15:50;27.60;;;25.47;;
11514;SDS011;5814;41.936;25.556;2023-01-29T10:21:06;27.47;;;25.47;;
11514;SDS011;5814;41.936;25.556;2023-01-29T10:23:36;29.40;;;27.20;;
11514;SDS011;5814;41.936;25.556;2023-01-29T10:26:03;27.30;;;25.30;;
11514;SDS011;5814;41.936;25.556;2023-01-29T10:28:31;29.13;;;26.93;;
11514;SDS011;5814;41.936;25.556;2023-01-29T10:31:03;27.97;;;25.90;;
11514;SDS011;5814;41.936;25.556;2023-01-29T10:33:36;28.63;;;26.43;;
11514;SDS011;5814;41.936;25.556;2023-01-29T10:36:02;29.07;;;26.87;;
11514;SDS011;5814;41.936;25.556;2023-01-29T10:38:30;31.97;;;29.27;;
11514;SDS011;5814;41.936;25.556;2023-01-29T10:40:59;30.20;;;27.70;;
11514;SDS011;5814;41.936;25.556;2023-01-29T10:43:33;30.23;;;27.63;;
11514;SDS011;5814;41.936;25.556;2023-01-29T10:46:03;28.93;;;26.60;;
11514;SDS011;5814;41.936;25.556;2023-01-29T10:56:45;34.00;;;31.10;;
11514;SDS011;5814;41.936;25.556;2023-01-29T10:59:47;33.50;;;30.57;;
11514;SDS011;5814;41.936;25.556;2023-01-29T11:02:00;34.97;;;31.97;;
11514;SDS011;5814;41.936;25.556;2023-01-29T11:04:27;34.17;;;31.17;;
11514;SDS011;5814;41.936;25.556;2023-01-29T11:06:54;36.37;;;32.53;;
11514;SDS011;5814;41.936;25.556;2023-01-29T11:09:28;37.20;;;33.80;;
11514;SDS011;5814;41.936;25.556;2023-01-29T11:12:01;31.70;;;28.77;;
11514;SDS011;5814;41.936;25.556;2023-01-29T11:14:30;33.33;;;30.33;;
11514;SDS011;5814;41.936;25.556;2023-01-29T11:17:14;35.80;;;32.10;;
11514;SDS011;5814;41.936;25.556;2023-01-29T11:19:43;36.17;;;32.57;;
11514;SDS011;5814;41.936;25.556;2023-01-29T11:22:12;30.97;;;28.17;;
11514;SDS011;5814;41.936;25.556;2023-01-29T11:24:42;38.23;;;34.43;;
11514;SDS011;5814;41.936;25.556;2023-01-29T11:27:14;31.87;;;28.97;;
11514;SDS011;5814;41.936;25.556;2023-01-29T11:29:43;35.07;;;31.87;;
11514;SDS011;5814;41.936;25.556;2023-01-29T11:32:11;33.03;;;29.70;;
11514;SDS011;5814;41.936;25.556;2023-01-29T11:37:16;32.23;;;28.77;;
11514;SDS011;5814;41.936;25.556;2023-01-29T11:39:43;32.67;;;29.23;;
11514;SDS011;5814;41.936;25.556;2023-01-29T11:42:17;27.87;;;25.10;;
11514;SDS011;5814;41.936;25.556;2023-01-29T11:44:41;30.60;;;27.90;;
11514;SDS011;5814;41.936;25.556;2023-01-29T11:47:14;29.90;;;27.43;;
11514;SDS011;5814;41.936;25.556;2023-01-29T11:49:51;33.37;;;30.33;;
11514;SDS011;5814;41.936;25.556;2023-01-29T11:52:19;34.57;;;31.33;;
11514;SDS011;5814;41.936;25.556;2023-01-29T11:54:48;32.13;;;29.27;;
11514;SDS011;5814;41.936;25.556;2023-01-29T11:57:23;31.53;;;28.90;;
11514;SDS011;5814;41.936;25.556;2023-01-29T11:59:50;31.03;;;27.90;;
11514;SDS011;5814;41.936;25.556;2023-01-29T12:02:20;31.33;;;28.63;;
11514;SDS011;5814;41.936;25.556;2023-01-29T12:04:48;32.80;;;30.00;;
11514;SDS011;5814;41.936;25.556;2023-01-29T12:07:15;32.83;;;30.03;;
11514;SDS011;5814;41.936;25.556;2023-01-29T12:09:49;30.80;;;28.20;;
11514;SDS011;5814;41.936;25.556;2023-01-29T12:12:32;31.13;;;28.27;;
11514;SDS011;5814;41.936;25.556;2023-01-29T12:15:01;28.63;;;26.33;;
11514;SDS011;5814;41.936;25.556;2023-01-29T12:17:28;30.90;;;28.23;;
11514;SDS011;5814;41.936;25.556;2023-01-29T12:19:57;32.57;;;29.60;;
11514;SDS011;5814;41.936;25.556;2023-01-29T12:22:30;33.10;;;30.10;;
11514;SDS011;5814;41.936;25.556;2023-01-29T12:25:15;35.70;;;32.37;;
11514;SDS011;5814;41.936;25.556;2023-01-29T12:30:39;42.03;;;37.63;;
11514;SDS011;5814;41.936;25.556;2023-01-29T12:33:11;39.17;;;35.00;;
11514;SDS011;5814;41.936;25.556;2023-01-29T12:35:42;38.83;;;34.77;;
11514;SDS011;5814;41.936;25.556;2023-01-29T12:38:18;40.20;;;36.17;;
11514;SDS011;5814;41.936;25.556;2023-01-29T12:40:39;41.83;;;37.37;;
11514;SDS011;5814;41.936;25.556;2023-01-29T12:43:10;36.70;;;33.00;;
11514;SDS011;5814;41.936;25.556;2023-01-29T12:45:33;35.53;;;31.93;;
11514;SDS011;5814;41.936;25.556;2023-01-29T12:48:03;36.83;;;33.17;;
11514;SDS011;5814;41.936;25.556;2023-01-29T12:50:31;36.53;;;32.83;;
11514;SDS011;5814;41.936;25.556;2023-01-29T12:53:01;38.07;;;34.20;;
11514;SDS011;5814;41.936;25.556;2023-01-29T12:55:29;40.03;;;35.80;;
11514;SDS011;5814;41.936;25.556;2023-01-29T12:57:56;40.53;;;36.17;;
11514;SDS011;5814;41.936;25.556;2023-01-29T13:00:26;40.37;;;35.97;;
11514;SDS011;5814;41.936;25.556;2023-01-29T13:05:49;41.70;;;35.90;;
11514;SDS011;5814;41.936;25.556;2023-01-29T13:08:18;38.53;;;33.10;;
11514;SDS011;5814;41.936;25.556;2023-01-29T13:10:47;40.07;;;35.67;;
11514;SDS011;5814;41.936;25.556;2023-01-29T13:14:19;40.63;;;35.70;;
11514;SDS011;5814;41.936;25.556;2023-01-29T13:16:44;39.87;;;35.13;;
11514;SDS011;5814;41.936;25.556;2023-01-29T13:19:20;37.50;;;33.50;;
11514;SDS011;5814;41.936;25.556;2023-01-29T13:21:53;38.10;;;34.10;;
11514;SDS011;5814;41.936;25.556;2023-01-29T13:24:21;39.70;;;35.47;;
11514;SDS011;5814;41.936;25.556;2023-01-29T13:26:47;38.10;;;34.03;;
11514;SDS011;5814;41.936;25.556;2023-01-29T13:29:21;47.10;;;41.27;;
11514;SDS011;5814;41.936;25.556;2023-01-29T13:31:50;44.13;;;39.27;;
11514;SDS011;5814;41.936;25.556;2023-01-29T13:34:21;50.37;;;42.50;;
11514;SDS011;5814;41.936;25.556;2023-01-29T13:36:51;39.13;;;35.07;;
11514;SDS011;5814;41.936;25.556;2023-01-29T13:39:34;36.73;;;32.93;;
11514;SDS011;5814;41.936;25.556;2023-01-29T13:42:14;41.10;;;36.80;;
11514;SDS011;5814;41.936;25.556;2023-01-29T14:47:19;43.67;;;39.13;;
11514;SDS011;5814;41.936;25.556;2023-01-29T14:50:01;47.43;;;42.07;;
11514;SDS011;5814;41.936;25.556;2023-01-29T14:52:29;51.20;;;45.57;;
11514;SDS011;5814;41.936;25.556;2023-01-29T14:54:58;37.80;;;34.20;;
11514;SDS011;5814;41.936;25.556;2023-01-29T14:57:25;42.10;;;37.77;;
11514;SDS011;5814;41.936;25.556;2023-01-29T14:59:55;41.43;;;37.43;;
11514;SDS011;5814;41.936;25.556;2023-01-29T15:02:26;42.63;;;38.10;;
11514;SDS011;5814;41.936;25.556;2023-01-29T15:04:55;41.33;;;37.07;;
11514;SDS011;5814;41.936;25.556;2023-01-29T15:07:25;44.40;;;39.70;;
11514;SDS011;5814;41.936;25.556;2023-01-29T15:10:13;37.53;;;33.97;;
11514;SDS011;5814;41.936;25.556;2023-01-29T15:12:45;39.17;;;35.37;;
11514;SDS011;5814;41.936;25.556;2023-01-29T15:15:14;37.37;;;33.80;;
11514;SDS011;5814;41.936;25.556;2023-01-29T15:17:48;39.37;;;35.50;;
11514;SDS011;5814;41.936;25.556;2023-01-29T15:20:28;39.07;;;35.13;;
11514;SDS011;5814;41.936;25.556;2023-01-29T15:22:54;43.53;;;39.23;;
11514;SDS011;5814;41.936;25.556;2023-01-29T15:25:36;33.90;;;30.97;;
11514;SDS011;5814;41.936;25.556;2023-01-29T15:28:03;37.97;;;34.43;;
11514;SDS011;5814;41.936;25.556;2023-01-29T15:30:32;35.90;;;32.47;;
11514;SDS011;5814;41.936;25.556;2023-01-29T15:32:59;44.33;;;39.63;;
11514;SDS011;5814;41.936;25.556;2023-01-29T15:38:04;47.83;;;42.83;;
11514;SDS011;5814;41.936;25.556;2023-01-29T15:40:30;40.70;;;36.73;;
11514;SDS011;5814;41.936;25.556;2023-01-29T15:42:57;39.60;;;35.90;;
11514;SDS011;5814;41.936;25.556;2023-01-29T15:45:28;44.50;;;40.20;;
11514;SDS011;5814;41.936;25.556;2023-01-29T15:47:57;35.87;;;32.27;;
11514;SDS011;5814;41.936;25.556;2023-01-29T15:50:22;32.77;;;29.90;;
11514;SDS011;5814;41.936;25.556;2023-01-29T15:52:50;32.07;;;29.27;;
11514;SDS011;5814;41.936;25.556;2023-01-29T15:55:16;31.73;;;29.33;;
11514;SDS011;5814;41.936;25.556;2023-01-29T15:57:44;34.43;;;31.40;;
11514;SDS011;5814;41.936;25.556;2023-01-29T16:00:18;33.57;;;30.57;;
11514;SDS011;5814;41.936;25.556;2023-01-29T16:02:44;37.83;;;34.27;;
11514;SDS011;5814;41.936;25.556;2023-01-29T16:05:13;38.43;;;34.47;;
11514;SDS011;5814;41.936;25.556;2023-01-29T16:07:39;38.97;;;34.90;;
11514;SDS011;5814;41.936;25.556;2023-01-29T16:10:10;31.27;;;28.50;;
11514;SDS011;5814;41.936;25.556;2023-01-29T16:12:34;37.10;;;33.70;;
11514;SDS011;5814;41.936;25.556;2023-01-29T16:15:02;37.03;;;33.50;;
11514;SDS011;5814;41.936;25.556;2023-01-29T16:17:31;36.57;;;33.37;;
11514;SDS011;5814;41.936;25.556;2023-01-29T16:20:04;35.70;;;32.50;;
11514;SDS011;5814;41.936;25.556;2023-01-29T16:22:32;36.20;;;32.80;;
11514;SDS011;5814;41.936;25.556;2023-01-29T16:25:01;36.23;;;32.87;;
11514;SDS011;5814;41.936;25.556;2023-01-29T16:27:27;34.73;;;31.63;;